createdAt,value
2023-05-19T00:01:03.719Z,81.10
2023-05-19T00:03:34.211Z,81.21
2023-05-19T00:06:06.077Z,81.27
2023-05-19T00:08:35.575Z,81.57
2023-05-19T00:11:03.996Z,82.12
2023-05-19T00:13:32.572Z,81.80
2023-05-19T00:16:01.047Z,81.81
2023-05-19T00:18:29.915Z,81.91
2023-05-19T00:20:58.000Z,82.13
2023-05-19T00:23:27.486Z,82.30
2023-05-19T00:25:55.522Z,82.59
2023-05-19T00:28:23.551Z,82.69
2023-05-19T00:30:52.499Z,82.66
2023-05-19T00:33:20.632Z,82.57
2023-05-19T00:35:48.858Z,82.50
2023-05-19T00:38:16.994Z,83.02
2023-05-19T00:40:46.866Z,83.04
2023-05-19T00:43:14.956Z,83.29
2023-05-19T00:45:43.219Z,83.14
2023-05-19T00:48:11.352Z,83.15
2023-05-19T00:50:39.557Z,83.53
2023-05-19T00:53:08.139Z,83.88
2023-05-19T00:55:40.547Z,83.78
2023-05-19T00:58:12.270Z,83.36
2023-05-19T01:00:40.768Z,83.76
2023-05-19T01:03:11.532Z,83.91
2023-05-19T01:05:44.771Z,83.85
2023-05-19T01:08:12.927Z,83.86
2023-05-19T01:10:41.210Z,83.95
2023-05-19T01:13:10.730Z,84.53
2023-05-19T01:15:54.716Z,85.02
2023-05-19T01:18:32.011Z,85.22
2023-05-19T01:21:23.678Z,85.62
2023-05-19T01:24:03.859Z,85.72
2023-05-19T01:26:56.943Z,85.70
2023-05-19T01:29:42.598Z,86.41
2023-05-19T01:32:13.356Z,85.74
2023-05-19T01:34:45.379Z,85.84
2023-05-19T01:37:16.040Z,85.51
2023-05-19T01:39:45.742Z,85.54
2023-05-19T01:42:15.572Z,85.30
2023-05-19T01:44:44.117Z,85.43
2023-05-19T01:47:14.252Z,85.56
2023-05-19T01:49:42.378Z,85.52
2023-05-19T01:52:10.618Z,86.53
2023-05-19T01:54:38.759Z,86.09
2023-05-19T01:57:21.185Z,86.82
2023-05-19T01:59:58.025Z,86.29
2023-05-19T02:02:37.168Z,86.33
2023-05-19T02:05:14.672Z,86.63
2023-05-19T02:07:49.636Z,86.84
2023-05-19T02:10:24.363Z,86.70
2023-05-19T02:12:54.602Z,86.18
2023-05-19T02:15:26.104Z,86.06
2023-05-19T02:18:00.390Z,86.41
2023-05-19T02:20:29.379Z,86.79
2023-05-19T02:22:57.842Z,86.53
2023-05-19T02:25:26.074Z,86.51
2023-05-19T02:27:54.291Z,86.92
2023-05-19T02:30:22.441Z,87.22
2023-05-19T02:32:50.568Z,87.38
2023-05-19T02:35:20.317Z,87.39
2023-05-19T02:37:48.401Z,87.06
2023-05-19T02:40:16.508Z,87.07
2023-05-19T02:42:45.485Z,87.22
2023-05-19T02:45:13.600Z,87.40
2023-05-19T02:47:42.616Z,87.88
2023-05-19T02:50:10.996Z,87.69
2023-05-19T02:52:40.515Z,87.29
2023-05-19T02:55:09.538Z,87.58
2023-05-19T02:57:37.640Z,87.31
2023-05-19T03:00:06.963Z,87.46
2023-05-19T03:02:35.561Z,88.10
2023-05-19T03:05:04.028Z,88.43
2023-05-19T03:07:33.770Z,88.48
2023-05-19T03:10:05.640Z,88.28
2023-05-19T03:12:34.520Z,88.38
2023-05-19T03:15:02.697Z,88.30
2023-05-19T03:17:33.852Z,88.77
2023-05-19T03:20:02.626Z,88.06
2023-05-19T03:22:30.784Z,88.34
2023-05-19T03:24:58.912Z,88.10
2023-05-19T03:27:28.516Z,88.24
2023-05-19T03:29:56.567Z,87.68
2023-05-19T03:32:25.259Z,88.09
2023-05-19T03:34:53.390Z,88.15
2023-05-19T03:37:21.700Z,88.66
2023-05-19T03:39:49.747Z,88.84
2023-05-19T03:42:18.127Z,88.71
2023-05-19T03:44:47.700Z,88.27
2023-05-19T03:47:16.000Z,88.55
2023-05-19T03:49:52.913Z,89.01
2023-05-19T03:52:46.811Z,88.93
2023-05-19T03:55:25.688Z,88.41
2023-05-19T03:57:53.926Z,88.20
2023-05-19T04:00:23.820Z,88.07
2023-05-19T04:02:52.390Z,87.69
2023-05-19T04:05:20.579Z,87.26
2023-05-19T04:07:48.612Z,86.82
2023-05-19T04:10:16.863Z,86.53
2023-05-19T04:12:44.917Z,86.50
2023-05-19T04:15:13.208Z,86.35
2023-05-19T04:17:43.330Z,85.79
2023-05-19T04:20:12.801Z,85.64
2023-05-19T04:22:40.868Z,85.88
2023-05-19T04:25:09.636Z,85.48
2023-05-19T04:27:40.985Z,85.40
2023-05-19T04:30:10.155Z,85.34
2023-05-19T04:32:39.708Z,84.72
2023-05-19T04:35:09.962Z,84.59
2023-05-19T04:37:39.168Z,84.30
2023-05-19T04:40:11.229Z,84.13
2023-05-19T04:42:43.251Z,83.92
2023-05-19T04:45:12.704Z,83.67
2023-05-19T04:47:44.481Z,82.95
2023-05-19T04:50:14.438Z,82.64
2023-05-19T04:52:45.543Z,82.43
2023-05-19T04:55:13.801Z,81.86
2023-05-19T04:57:43.174Z,81.09
2023-05-19T05:00:13.907Z,80.18
2023-05-19T05:02:57.649Z,79.66
2023-05-19T05:05:29.054Z,79.61
2023-05-19T05:07:57.489Z,78.94
2023-05-19T05:10:28.180Z,78.28
2023-05-19T05:12:56.756Z,77.15
2023-05-19T05:15:28.641Z,76.36
2023-05-19T05:17:58.076Z,75.87
2023-05-19T05:20:28.974Z,74.80
2023-05-19T05:22:58.803Z,74.28
2023-05-19T05:25:28.371Z,72.79
2023-05-19T05:27:59.066Z,71.40
2023-05-19T05:30:27.375Z,70.26
2023-05-19T05:32:55.832Z,69.07
2023-05-19T05:35:35.519Z,68.68
2023-05-19T05:38:05.297Z,67.93
2023-05-19T05:40:33.828Z,67.07
2023-05-19T05:43:02.075Z,66.79
2023-05-19T05:45:33.702Z,66.11
2023-05-19T05:48:03.284Z,65.58
2023-05-19T05:50:33.103Z,65.37
2023-05-19T05:53:02.968Z,65.27
2023-05-19T05:55:31.904Z,64.86
2023-05-19T05:58:02.395Z,64.70
2023-05-19T06:00:30.918Z,64.33
2023-05-19T06:02:59.227Z,64.53
2023-05-19T06:05:27.729Z,64.10
2023-05-19T06:07:56.753Z,64.22
2023-05-19T06:10:29.360Z,64.00
2023-05-19T06:12:57.647Z,64.17
2023-05-19T06:15:27.097Z,64.19
2023-05-19T06:18:06.160Z,64.00
2023-05-19T06:20:34.567Z,63.42
2023-05-19T06:23:03.868Z,63.54
2023-05-19T06:25:33.531Z,63.47
2023-05-19T06:28:02.095Z,63.29
2023-05-19T06:30:30.349Z,63.10
2023-05-19T06:33:18.813Z,63.03
2023-05-19T06:35:46.977Z,63.06
2023-05-19T06:38:16.058Z,62.93
2023-05-19T06:40:45.681Z,62.97
2023-05-19T06:43:13.866Z,62.92
2023-05-19T06:45:56.144Z,63.01
2023-05-19T06:48:26.562Z,62.26
2023-05-19T06:50:54.730Z,62.23
2023-05-19T06:53:23.095Z,62.09
2023-05-19T06:55:59.719Z,62.15
2023-05-19T06:58:32.049Z,62.39
2023-05-19T07:01:01.659Z,62.23
2023-05-19T07:03:35.533Z,62.51
2023-05-19T07:06:05.665Z,61.91
2023-05-19T07:08:37.169Z,62.07
2023-05-19T07:11:08.197Z,62.43
2023-05-19T07:13:36.448Z,61.38
2023-05-19T07:16:05.800Z,61.54
2023-05-19T07:18:34.566Z,61.52
2023-05-19T07:21:02.603Z,61.03
2023-05-19T07:23:30.837Z,60.71
2023-05-19T07:25:59.139Z,60.22
2023-05-19T07:28:28.646Z,60.89
2023-05-19T07:30:56.660Z,60.69
2023-05-19T07:33:24.865Z,60.59
2023-05-19T07:35:52.881Z,60.24
2023-05-19T07:38:21.482Z,59.84
2023-05-19T07:40:49.693Z,58.72
2023-05-19T07:43:17.751Z,59.47
2023-05-19T07:45:47.245Z,59.26
2023-05-19T07:48:15.448Z,58.84
2023-05-19T07:50:43.597Z,58.82
2023-05-19T07:53:11.722Z,58.88
2023-05-19T07:55:39.805Z,59.29
2023-05-19T07:58:08.021Z,59.25
2023-05-19T08:00:36.826Z,59.40
2023-05-19T08:03:06.608Z,59.00
2023-05-19T08:05:36.144Z,58.80
2023-05-19T08:08:04.840Z,57.76
2023-05-19T08:10:33.209Z,58.10
2023-05-19T08:13:01.458Z,58.45
2023-05-19T08:15:29.824Z,58.33
2023-05-19T08:17:58.047Z,58.15
2023-05-19T08:20:27.538Z,58.33
2023-05-19T08:22:55.658Z,58.37
2023-05-19T08:25:23.766Z,57.38
2023-05-19T08:27:52.206Z,56.07
2023-05-19T08:30:20.571Z,56.20
2023-05-19T08:32:48.907Z,55.76
2023-05-19T08:35:17.167Z,54.63
2023-05-19T08:37:46.669Z,55.31
2023-05-19T08:40:19.455Z,53.66
2023-05-19T08:42:47.879Z,54.11
2023-05-19T08:45:16.998Z,54.82
2023-05-19T08:47:47.454Z,55.00
2023-05-19T08:50:21.432Z,54.72
2023-05-19T08:52:53.750Z,53.09
2023-05-19T08:55:41.270Z,52.16
2023-05-19T08:58:10.004Z,52.73
2023-05-19T09:00:38.521Z,52.55
2023-05-19T09:03:22.782Z,52.74
2023-05-19T09:05:51.909Z,51.77
2023-05-19T09:08:22.666Z,52.03
2023-05-19T09:10:51.057Z,51.11
2023-05-19T09:13:19.510Z,51.44
2023-05-19T09:15:49.747Z,50.28
2023-05-19T09:18:17.924Z,49.79
2023-05-19T09:20:47.439Z,49.18
2023-05-19T09:23:16.593Z,48.01
2023-05-19T09:25:53.608Z,45.94
2023-05-19T09:28:26.129Z,44.55
2023-05-19T09:31:05.201Z,43.21
2023-05-19T09:33:36.369Z,42.92
2023-05-19T09:36:06.152Z,41.75
2023-05-19T09:38:34.542Z,42.43
2023-05-19T09:41:04.825Z,40.35
2023-05-19T09:43:35.025Z,40.79
2023-05-19T09:46:06.225Z,40.82
2023-05-19T09:48:34.593Z,40.14
2023-05-19T09:51:03.264Z,41.83
2023-05-19T09:53:32.705Z,40.90
2023-05-19T09:56:03.994Z,39.94
2023-05-19T09:58:34.822Z,40.92
2023-05-19T10:01:03.220Z,36.86
2023-05-19T10:03:32.983Z,35.00
2023-05-19T10:06:02.641Z,36.59
2023-05-19T10:08:32.006Z,35.00
2023-05-19T10:11:01.291Z,34.35
2023-05-19T10:13:32.185Z,34.74
2023-05-19T10:16:01.178Z,35.32
2023-05-19T10:18:30.536Z,34.01
2023-05-19T10:20:59.955Z,33.46
2023-05-19T10:23:28.055Z,34.07
2023-05-19T10:25:59.185Z,32.96
2023-05-19T10:28:36.672Z,32.17
2023-05-19T10:31:08.951Z,33.01
2023-05-19T10:33:48.553Z,35.62
2023-05-19T10:36:35.481Z,33.12
2023-05-19T10:39:08.654Z,34.49
2023-05-19T10:41:46.963Z,35.43
2023-05-19T10:44:29.465Z,33.93
2023-05-19T10:46:57.623Z,34.23
2023-05-19T10:49:25.927Z,35.25
2023-05-19T10:51:57.246Z,35.15
2023-05-19T10:54:43.095Z,34.25
2023-05-19T10:57:16.362Z,35.72
2023-05-19T10:59:46.092Z,35.57
2023-05-19T11:02:39.967Z,35.17
2023-05-19T11:05:14.640Z,36.71
2023-05-19T11:07:44.692Z,35.72
2023-05-19T11:10:13.591Z,35.66
2023-05-19T11:12:44.020Z,35.06
2023-05-19T11:15:16.007Z,34.27
2023-05-19T11:17:48.411Z,34.57
2023-05-19T11:20:23.755Z,33.48
2023-05-19T11:23:08.741Z,34.24
2023-05-19T11:25:44.116Z,33.97
2023-05-19T11:28:13.670Z,35.25
2023-05-19T11:30:44.627Z,35.32
2023-05-19T11:33:14.043Z,36.08
2023-05-19T11:35:44.577Z,36.02
2023-05-19T11:38:13.243Z,35.87
2023-05-19T11:40:43.552Z,36.07
2023-05-19T11:43:11.844Z,36.39
2023-05-19T11:45:40.278Z,35.68
2023-05-19T11:48:12.759Z,34.60
2023-05-19T11:50:44.053Z,35.81
2023-05-19T11:53:14.111Z,36.14
2023-05-19T11:55:47.028Z,35.78
2023-05-19T11:58:16.068Z,35.44
2023-05-19T12:00:46.329Z,35.26
2023-05-19T12:03:17.393Z,35.19
2023-05-19T12:05:48.020Z,34.91
2023-05-19T12:08:18.327Z,35.13
2023-05-19T12:10:49.572Z,34.86
2023-05-19T12:13:17.913Z,35.54
2023-05-19T12:15:46.046Z,34.65
2023-05-19T12:18:15.614Z,34.62
2023-05-19T12:20:44.540Z,34.05
2023-05-19T12:23:13.622Z,34.66
2023-05-19T12:25:41.981Z,34.69
2023-05-19T12:28:10.663Z,34.87
2023-05-19T12:30:39.013Z,35.47
2023-05-19T12:33:07.497Z,35.44
2023-05-19T12:35:39.035Z,35.03
2023-05-19T12:38:08.222Z,35.04
2023-05-19T12:40:37.796Z,35.42
2023-05-19T12:43:06.856Z,35.99
2023-05-19T12:45:36.310Z,36.24
2023-05-19T12:48:06.674Z,36.03
2023-05-19T12:50:38.938Z,35.69
2023-05-19T12:53:10.353Z,36.18
2023-05-19T12:55:41.768Z,36.32
2023-05-19T12:58:11.536Z,36.15
2023-05-19T13:00:43.757Z,35.41
2023-05-19T13:03:16.991Z,34.29
2023-05-19T13:05:47.836Z,34.69
2023-05-19T13:08:18.195Z,34.70
2023-05-19T13:10:47.782Z,35.09
2023-05-19T13:13:15.925Z,34.58
2023-05-19T13:15:45.385Z,35.02
2023-05-19T13:18:15.160Z,33.76
2023-05-19T13:20:45.012Z,33.98
2023-05-19T13:23:15.467Z,34.52
2023-05-19T13:25:44.079Z,34.33
2023-05-19T13:28:12.283Z,34.84
2023-05-19T13:30:41.958Z,34.77
2023-05-19T13:33:10.289Z,35.81
2023-05-19T13:35:39.016Z,35.59
2023-05-19T13:38:07.977Z,34.89
2023-05-19T13:40:37.730Z,34.83
2023-05-19T13:43:06.121Z,34.79
2023-05-19T13:45:34.485Z,35.23
2023-05-19T13:48:02.749Z,35.49
2023-05-19T13:50:31.370Z,36.08
2023-05-19T13:52:59.467Z,36.02
2023-05-19T13:55:27.568Z,35.43
2023-05-19T13:57:57.029Z,35.15
2023-05-19T14:00:25.319Z,34.89
2023-05-19T14:02:53.916Z,35.43
2023-05-19T14:05:22.027Z,33.98
2023-05-19T14:07:50.200Z,35.11
2023-05-19T14:10:18.264Z,34.97
2023-05-19T14:13:14.131Z,34.48
2023-05-19T14:15:38.102Z,33.39
2023-05-19T14:18:07.043Z,33.60
2023-05-19T14:20:35.631Z,33.56
2023-05-19T14:23:03.987Z,33.29
2023-05-19T14:25:32.020Z,31.78
2023-05-19T14:28:00.171Z,33.76
2023-05-19T14:30:28.216Z,32.90
2023-05-19T14:32:57.731Z,33.79
2023-05-19T14:35:26.197Z,33.88
2023-05-19T14:37:55.609Z,34.25
2023-05-19T14:40:23.695Z,33.48
2023-05-19T14:42:51.743Z,33.83
2023-05-19T14:45:19.919Z,33.56
2023-05-19T14:47:48.122Z,33.77
2023-05-19T14:50:17.841Z,33.71
2023-05-19T14:52:46.046Z,33.91
2023-05-19T14:55:14.125Z,32.92
2023-05-19T14:57:42.170Z,32.32
2023-05-19T15:00:10.998Z,33.72
2023-05-19T15:02:39.110Z,33.29
2023-05-19T15:05:07.748Z,34.13
2023-05-19T15:07:37.281Z,34.01
2023-05-19T15:10:06.123Z,34.60
2023-05-19T15:12:34.244Z,34.29
2023-05-19T15:15:02.368Z,34.27
2023-05-19T15:17:30.948Z,33.95
2023-05-19T15:19:59.094Z,34.17
2023-05-19T15:22:27.271Z,34.62
2023-05-19T15:24:56.853Z,33.69
2023-05-19T15:27:24.954Z,32.61
2023-05-19T15:29:52.969Z,33.16
2023-05-19T15:32:21.102Z,32.67
2023-05-19T15:34:49.278Z,33.31
2023-05-19T15:37:17.351Z,33.68
2023-05-19T15:39:45.491Z,33.56
2023-05-19T15:42:14.923Z,34.22
2023-05-19T15:44:45.950Z,34.75
2023-05-19T15:47:14.014Z,34.81
2023-05-19T15:49:42.043Z,34.77
2023-05-19T15:52:10.168Z,35.28
2023-05-19T15:54:38.184Z,34.81
2023-05-19T15:57:06.700Z,34.70
2023-05-19T15:59:36.139Z,34.18
2023-05-19T16:02:04.515Z,35.08
2023-05-19T16:04:33.390Z,35.16
2023-05-19T16:07:01.454Z,34.99
2023-05-19T16:09:29.520Z,34.26
2023-05-19T16:11:57.671Z,35.51
2023-05-19T16:14:29.377Z,35.46
2023-05-19T16:17:00.004Z,35.74
2023-05-19T16:19:28.400Z,35.85
2023-05-19T16:21:56.526Z,35.82
2023-05-19T16:24:24.578Z,36.09
2023-05-19T16:26:53.830Z,35.82
2023-05-19T16:29:22.128Z,35.31
2023-05-19T16:31:50.194Z,35.48
2023-05-19T16:34:19.736Z,35.28
2023-05-19T16:36:47.807Z,35.70
2023-05-19T16:39:15.920Z,36.45
2023-05-19T16:41:43.975Z,36.79
2023-05-19T16:44:14.429Z,36.91
2023-05-19T16:46:42.696Z,37.25
2023-05-19T16:49:11.247Z,36.15
2023-05-19T16:51:40.651Z,35.80
2023-05-19T16:54:08.758Z,35.84
2023-05-19T16:56:36.820Z,35.34
2023-05-19T16:59:04.901Z,35.70
2023-05-19T17:01:33.052Z,35.86
2023-05-19T17:04:01.184Z,35.40
2023-05-19T17:06:29.393Z,35.43
2023-05-19T17:08:58.836Z,34.94
2023-05-19T17:11:27.629Z,34.95
2023-05-19T17:13:55.729Z,34.66
2023-05-19T17:16:24.628Z,33.94
2023-05-19T17:18:52.892Z,34.48
2023-05-19T17:21:21.538Z,34.28
2023-05-19T17:23:49.668Z,33.88
2023-05-19T17:26:19.147Z,33.23
2023-05-19T17:28:47.196Z,33.87
2023-05-19T17:31:16.276Z,35.22
2023-05-19T17:33:44.432Z,35.74
2023-05-19T17:36:12.531Z,36.25
2023-05-19T17:38:42.011Z,36.52
2023-05-19T17:41:11.025Z,37.11
2023-05-19T17:43:41.699Z,37.44
2023-05-19T17:46:11.799Z,38.26
2023-05-19T17:48:40.769Z,38.59
2023-05-19T17:51:08.916Z,39.10
2023-05-19T17:53:37.763Z,39.28
2023-05-19T17:56:08.901Z,38.53
2023-05-19T17:58:37.656Z,38.51
2023-05-19T18:01:07.700Z,38.73
2023-05-19T18:03:36.513Z,38.72
2023-05-19T18:06:05.000Z,39.09
2023-05-19T18:08:33.840Z,39.24
2023-05-19T18:11:02.333Z,39.59
2023-05-19T18:13:30.942Z,40.06
2023-05-19T18:15:59.777Z,40.48
2023-05-19T18:18:29.320Z,40.69
2023-05-19T18:20:57.372Z,41.07
2023-05-19T18:23:25.667Z,41.43
2023-05-19T18:25:53.771Z,41.49
2023-05-19T18:28:21.866Z,41.83
2023-05-19T18:30:59.918Z,42.26
2023-05-19T18:33:30.938Z,42.35
2023-05-19T18:36:00.055Z,42.64
2023-05-19T18:38:28.174Z,43.10
2023-05-19T18:40:57.033Z,43.28
2023-05-19T18:43:25.244Z,43.79
2023-05-19T18:45:53.315Z,43.38
2023-05-19T18:48:22.619Z,43.75
2023-05-19T18:50:52.258Z,43.69
2023-05-19T18:53:22.071Z,44.16
2023-05-19T18:55:50.285Z,43.95
2023-05-19T18:58:18.793Z,43.97
2023-05-19T19:00:46.944Z,44.34
2023-05-19T19:03:15.049Z,44.32
2023-05-19T19:05:43.273Z,44.15
2023-05-19T19:08:12.777Z,44.48
2023-05-19T19:10:40.830Z,44.75
2023-05-19T19:13:08.930Z,45.13
2023-05-19T19:15:37.753Z,45.04
2023-05-19T19:18:08.062Z,45.25
2023-05-19T19:20:36.387Z,45.33
2023-05-19T19:23:06.547Z,45.54
2023-05-19T19:25:36.479Z,45.83
2023-05-19T19:28:04.738Z,46.29
2023-05-19T19:30:32.997Z,46.42
2023-05-19T19:33:01.443Z,46.71
2023-05-19T19:35:29.749Z,46.67
2023-05-19T19:37:58.539Z,46.91
2023-05-19T19:40:26.756Z,47.06
2023-05-19T19:42:56.286Z,47.21
2023-05-19T19:45:24.488Z,47.39
2023-05-19T19:47:52.856Z,47.78
2023-05-19T19:50:21.161Z,48.07
2023-05-19T19:52:49.250Z,47.83
2023-05-19T19:55:17.473Z,48.46
2023-05-19T19:57:49.307Z,48.67
2023-05-19T20:00:19.694Z,49.11
2023-05-19T20:03:03.468Z,49.16
2023-05-19T20:05:32.858Z,49.50
2023-05-19T20:08:01.205Z,49.57
2023-05-19T20:10:29.451Z,49.88
2023-05-19T20:12:58.924Z,50.00
2023-05-19T20:15:28.420Z,50.39
2023-05-19T20:17:56.573Z,50.42
2023-05-19T20:20:24.738Z,50.80
2023-05-19T20:22:52.801Z,51.05
2023-05-19T20:25:20.959Z,51.04
2023-05-19T20:27:49.037Z,51.39
2023-05-19T20:30:17.124Z,51.40
2023-05-19T20:32:47.150Z,51.70
2023-05-19T20:35:15.511Z,51.83
2023-05-19T20:37:43.664Z,52.21
2023-05-19T20:40:12.838Z,52.38
2023-05-19T20:42:41.290Z,52.69
2023-05-19T20:45:10.201Z,52.74
2023-05-19T20:47:38.436Z,52.85
2023-05-19T20:50:09.099Z,53.82
2023-05-19T20:52:37.344Z,53.48
2023-05-19T20:55:06.033Z,53.94
2023-05-19T20:57:34.222Z,53.94
2023-05-19T21:00:02.357Z,54.14
2023-05-19T21:02:30.648Z,54.53
2023-05-19T21:04:58.762Z,55.17
2023-05-19T21:07:28.259Z,55.64
2023-05-19T21:09:57.652Z,56.02
2023-05-19T21:12:28.689Z,56.24
2023-05-19T21:14:56.726Z,56.69
2023-05-19T21:17:24.905Z,56.79
2023-05-19T21:19:57.694Z,57.75
2023-05-19T21:22:26.351Z,57.70
2023-05-19T21:24:55.945Z,58.11
2023-05-19T21:27:24.187Z,58.62
2023-05-19T21:29:53.491Z,58.79
2023-05-19T21:32:21.813Z,58.97
2023-05-19T21:34:49.990Z,59.36
2023-05-19T21:37:18.302Z,59.72
2023-05-19T21:39:46.441Z,60.22
2023-05-19T21:42:15.906Z,60.41
2023-05-19T21:44:43.980Z,60.90
2023-05-19T21:47:12.172Z,60.83
2023-05-19T21:49:40.720Z,61.30
2023-05-19T21:52:08.926Z,61.29
2023-05-19T21:54:37.241Z,61.55
2023-05-19T21:57:05.723Z,61.83
2023-05-19T21:59:35.300Z,62.12
2023-05-19T22:02:03.641Z,62.18
2023-05-19T22:04:32.295Z,62.67
2023-05-19T22:07:00.573Z,62.67
2023-05-19T22:09:29.210Z,63.05
2023-05-19T22:11:57.332Z,63.47
2023-05-19T22:14:25.419Z,63.43
2023-05-19T22:16:55.132Z,63.79
2023-05-19T22:19:23.424Z,64.11
2023-05-19T22:21:58.397Z,64.33
2023-05-19T22:24:30.504Z,64.42
2023-05-19T22:26:58.512Z,64.70
2023-05-19T22:29:26.676Z,65.08
2023-05-19T22:31:56.098Z,65.55
2023-05-19T22:34:24.341Z,65.88
2023-05-19T22:36:53.933Z,66.57
2023-05-19T22:39:22.048Z,66.48
2023-05-19T22:41:50.203Z,66.46
2023-05-19T22:44:19.605Z,66.84
2023-05-19T22:46:47.702Z,67.26
2023-05-19T22:49:17.122Z,67.26
2023-05-19T22:51:45.237Z,67.54
2023-05-19T22:54:13.447Z,67.96
2023-05-19T22:56:44.322Z,68.74
2023-05-19T22:59:13.385Z,68.50
2023-05-19T23:01:41.489Z,68.69
2023-05-19T23:04:09.624Z,69.06
2023-05-19T23:06:39.112Z,69.61
2023-05-19T23:09:07.171Z,69.25
2023-05-19T23:11:35.905Z,69.59
2023-05-19T23:14:04.118Z,69.71
2023-05-19T23:16:32.202Z,69.81
2023-05-19T23:19:01.080Z,70.18
2023-05-19T23:21:31.346Z,70.13
2023-05-19T23:24:00.807Z,70.16
2023-05-19T23:26:28.840Z,70.55
2023-05-19T23:28:56.949Z,71.17
2023-05-19T23:31:25.096Z,71.02
2023-05-19T23:33:53.243Z,71.03
2023-05-19T23:36:21.434Z,71.52
2023-05-19T23:38:49.471Z,71.51
2023-05-19T23:41:18.999Z,70.93
2023-05-19T23:43:47.027Z,71.24
2023-05-19T23:46:15.230Z,71.34
2023-05-19T23:48:43.420Z,71.01
2023-05-19T23:51:11.808Z,70.88
2023-05-19T23:53:39.989Z,71.69
2023-05-19T23:56:08.868Z,71.38
2023-05-19T23:58:38.308Z,70.98
